Time;durP1;ratioP1;P1;durP2;ratioP2;P2;SDS_P1;SDS_P2;PMS_P1;PMS_P2;Temp;Humidity;BMP_temperature;BMP_pressure;BME280_temperature;BME280_humidity;BME280_pressure;Samples;Min_cycle;Max_cycle;Signal;HPM_P1;HPM_P2
2023/01/08 00:01:55;;;;;;;5.25;3.88;;;10.00;99.90;;;;;;5085274;28;20487;-72
2023/01/08 00:04:20;;;;;;;4.15;3.75;;;10.10;99.90;;;;;;5087356;28;20048;-72
2023/01/08 00:06:46;;;;;;;4.97;3.78;;;10.10;99.90;;;;;;5086731;28;20100;-72
2023/01/08 00:09:12;;;;;;;4.57;3.90;;;10.10;99.90;;;;;;5086776;28;20479;-72
2023/01/08 00:11:37;;;;;;;4.35;3.53;;;10.00;99.90;;;;;;5084842;28;20039;-71
2023/01/08 00:14:03;;;;;;;5.18;3.83;;;10.10;99.90;;;;;;5088070;28;20047;-72
2023/01/08 00:16:30;;;;;;;5.47;3.80;;;10.10;99.90;;;;;;5087209;28;20044;-72
2023/01/08 00:18:55;;;;;;;5.57;3.92;;;10.10;99.90;;;;;;5085630;28;20092;-72
2023/01/08 00:21:21;;;;;;;5.65;3.65;;;10.10;99.90;;;;;;5088072;28;20054;-72
2023/01/08 00:23:47;;;;;;;5.45;3.83;;;10.00;99.90;;;;;;5086142;28;20486;-72
2023/01/08 00:26:13;;;;;;;4.28;3.72;;;10.10;99.90;;;;;;5102868;28;20044;-72
2023/01/08 00:28:40;;;;;;;3.83;3.42;;;10.10;99.90;;;;;;5082770;28;21045;-72
2023/01/08 00:31:08;;;;;;;4.23;3.40;;;10.10;99.90;;;;;;5085432;28;20043;-72
2023/01/08 00:33:35;;;;;;;4.85;3.67;;;10.10;99.90;;;;;;5086287;28;20313;-72
2023/01/08 00:36:07;;;;;;;5.10;3.80;;;10.10;99.90;;;;;;5090438;28;20032;-72
2023/01/08 00:38:33;;;;;;;4.70;4.05;;;10.10;99.90;;;;;;5085714;28;20127;-72
2023/01/08 00:40:59;;;;;;;5.07;3.60;;;10.10;99.90;;;;;;5089794;28;20163;-72
2023/01/08 00:43:24;;;;;;;5.38;4.00;;;10.10;99.90;;;;;;5090640;28;20476;-72
2023/01/08 00:45:53;;;;;;;5.35;3.85;;;10.10;99.90;;;;;;5087451;28;20048;-72
2023/01/08 00:48:22;;;;;;;5.55;3.80;;;10.10;99.90;;;;;;5085313;28;20510;-72
2023/01/08 00:50:48;;;;;;;4.53;3.63;;;10.10;99.90;;;;;;5084366;28;20367;-72
2023/01/08 00:53:14;;;;;;;5.53;3.63;;;10.10;99.90;;;;;;5082020;28;20056;-72
2023/01/08 00:55:40;;;;;;;5.97;3.75;;;10.10;99.90;;;;;;5085090;28;20151;-72
2023/01/08 00:58:05;;;;;;;3.63;3.33;;;10.10;99.90;;;;;;5086930;28;20058;-72
2023/01/08 01:00:31;;;;;;;4.90;3.65;;;10.10;99.90;;;;;;5089755;28;20426;-72
2023/01/08 01:02:57;;;;;;;5.40;4.10;;;10.00;99.90;;;;;;5090747;28;20074;-72
2023/01/08 01:05:22;;;;;;;5.38;3.95;;;10.00;99.90;;;;;;5082956;28;20443;-72
2023/01/08 01:07:48;;;;;;;4.18;3.70;;;10.00;99.90;;;;;;5088618;28;20074;-72
2023/01/08 01:10:15;;;;;;;5.38;3.67;;;10.00;99.90;;;;;;5087567;28;20054;-71
2023/01/08 01:12:41;;;;;;;5.50;3.90;;;10.00;99.90;;;;;;5083135;28;20122;-72
2023/01/08 01:15:13;;;;;;;5.57;3.70;;;10.00;99.90;;;;;;5088951;28;20174;-72
2023/01/08 01:17:40;;;;;;;6.50;3.88;;;10.10;99.90;;;;;;5087405;28;20039;-72
2023/01/08 01:20:08;;;;;;;4.80;3.97;;;10.10;99.90;;;;;;5086033;28;20487;-72
2023/01/08 01:22:34;;;;;;;3.88;3.47;;;10.10;99.90;;;;;;5080462;28;21692;-72
2023/01/08 01:25:00;;;;;;;5.40;3.85;;;10.10;99.90;;;;;;5089761;28;20093;-72
2023/01/08 01:27:25;;;;;;;6.10;3.92;;;10.10;99.90;;;;;;5088683;28;20052;-72
2023/01/08 01:29:52;;;;;;;6.10;3.88;;;10.10;99.90;;;;;;5089533;28;20487;-72
2023/01/08 01:32:17;;;;;;;5.00;4.05;;;10.10;99.90;;;;;;5088380;28;20132;-72
2023/01/08 01:34:43;;;;;;;4.78;3.78;;;10.10;99.90;;;;;;5084511;28;20116;-72
2023/01/08 01:37:11;;;;;;;4.13;3.60;;;10.10;99.90;;;;;;5086820;28;21128;-72
2023/01/08 01:39:37;;;;;;;4.63;3.70;;;10.10;99.90;;;;;;5084925;28;20054;-72
2023/01/08 01:42:03;;;;;;;5.82;3.60;;;10.10;99.90;;;;;;5089686;28;20152;-71
2023/01/08 01:44:31;;;;;;;6.32;3.88;;;10.10;99.90;;;;;;5084913;28;20044;-71
2023/01/08 01:46:57;;;;;;;4.80;3.72;;;10.10;99.90;;;;;;5086050;28;20514;-72
2023/01/08 01:49:23;;;;;;;5.03;3.70;;;10.10;99.90;;;;;;5080793;28;20044;-72
2023/01/08 01:51:56;;;;;;;4.30;3.60;;;10.10;99.90;;;;;;5092962;28;20048;-72
2023/01/08 01:54:23;;;;;;;6.60;4.00;;;10.10;99.90;;;;;;5086347;28;20051;-71
2023/01/08 01:56:49;;;;;;;4.45;3.90;;;10.10;99.90;;;;;;5086033;28;20483;-72
2023/01/08 01:59:15;;;;;;;4.80;3.50;;;10.10;99.90;;;;;;5085245;28;20055;-72
2023/01/08 02:01:42;;;;;;;4.88;3.67;;;10.10;99.90;;;;;;5085587;28;20036;-72
2023/01/08 02:04:11;;;;;;;6.32;3.90;;;10.10;99.90;;;;;;5089726;28;20101;-72
2023/01/08 02:07:04;;;;;;;7.05;2.35;;;10.10;99.90;;;;;;5075782;28;20068;-72
2023/01/08 02:09:36;;;;;;;3.63;1.70;;;10.00;99.90;;;;;;5080465;28;20056;-72
2023/01/08 02:12:17;;;;;;;4.72;2.10;;;10.00;99.90;;;;;;5082919;28;20570;-72
2023/01/08 02:15:07;;;;;;;4.63;2.22;;;9.90;99.90;;;;;;5084660;28;20390;-72
2023/01/08 02:17:51;;;;;;;4.97;2.33;;;9.80;99.90;;;;;;5085153;28;20040;-72
2023/01/08 02:20:29;;;;;;;6.35;2.10;;;9.70;99.90;;;;;;5086806;28;20495;-72
2023/01/08 02:23:00;;;;;;;;;;;9.70;99.90;;;;;;5085203;28;20072;-72
2023/01/08 02:25:58;;;;;;;4.53;1.90;;;9.60;99.90;;;;;;5083067;28;20334;-72
2023/01/08 02:28:26;;;;;;;4.25;2.10;;;9.60;99.90;;;;;;5076654;28;20494;-72
2023/01/08 02:30:53;;;;;;;3.25;1.85;;;9.60;99.90;;;;;;5087807;28;20036;-72
2023/01/08 02:33:19;;;;;;;4.40;2.17;;;9.50;99.90;;;;;;5083136;28;20076;-72
2023/01/08 02:35:54;;;;;;;4.75;2.38;;;9.60;99.90;;;;;;5086051;28;20078;-72
2023/01/08 02:38:21;;;;;;;4.07;2.20;;;9.50;99.90;;;;;;5085389;28;20096;-72
2023/01/08 02:41:07;;;;;;;5.63;2.53;;;9.50;99.90;;;;;;5089263;28;20050;-72
2023/01/08 02:43:50;;;;;;;4.67;2.30;;;9.50;99.90;;;;;;5088626;28;20056;-72
2023/01/08 02:46:21;;;;;;;3.70;2.40;;;9.50;99.90;;;;;;5078886;28;20429;-72
2023/01/08 02:48:50;;;;;;;4.32;2.95;;;9.50;99.90;;;;;;5086333;28;20130;-72
2023/01/08 02:51:29;;;;;;;5.28;3.47;;;9.50;99.90;;;;;;5085963;28;20050;-72
2023/01/08 02:54:01;;;;;;;8.75;4.20;;;9.50;99.90;;;;;;5087110;28;20049;-72
2023/01/08 02:56:32;;;;;;;6.22;4.22;;;9.50;99.90;;;;;;5081240;28;20122;-72
2023/01/08 02:58:59;;;;;;;7.05;4.55;;;9.60;99.90;;;;;;5103273;28;20084;-72
2023/01/08 03:01:27;;;;;;;7.53;4.90;;;9.60;99.90;;;;;;5084895;28;20055;-72
2023/01/08 03:04:00;;;;;;;7.15;4.60;;;9.70;99.90;;;;;;5086706;28;20445;-72
2023/01/08 03:06:27;;;;;;;6.43;4.43;;;9.60;99.90;;;;;;5083356;28;20131;-72
2023/01/08 03:08:53;;;;;;;5.65;4.60;;;9.70;99.90;;;;;;5085499;28;20107;-72
2023/01/08 03:11:22;;;;;;;7.15;4.60;;;9.70;99.90;;;;;;5086911;28;20040;-72
2023/01/08 03:14:01;;;;;;;8.65;5.00;;;9.70;99.90;;;;;;5084621;28;20127;-72
2023/01/08 03:16:37;;;;;;;8.57;4.65;;;9.70;99.90;;;;;;5081070;28;20067;-72
2023/01/08 03:19:17;;;;;;;8.13;4.88;;;9.70;99.90;;;;;;5098147;28;20044;-72
2023/01/08 03:21:45;;;;;;;6.65;4.57;;;9.70;99.90;;;;;;5080801;28;20055;-72
2023/01/08 03:24:17;;;;;;;7.07;4.28;;;9.70;99.90;;;;;;5083510;28;20067;-71
2023/01/08 03:26:45;;;;;;;7.05;4.80;;;9.70;99.90;;;;;;5089327;28;20503;-72
2023/01/08 03:29:15;;;;;;;7.22;5.00;;;9.70;99.90;;;;;;5090017;28;20059;-72
2023/01/08 03:31:44;;;;;;;8.35;5.00;;;9.70;99.90;;;;;;5083959;28;20055;-72
2023/01/08 03:34:11;;;;;;;8.18;4.80;;;9.70;99.90;;;;;;5084416;28;20169;-72
2023/01/08 03:36:40;;;;;;;5.82;4.07;;;9.70;99.90;;;;;;5089564;28;20437;-72
2023/01/08 03:39:16;;;;;;;7.65;4.70;;;9.80;99.90;;;;;;5092809;28;20040;-72
2023/01/08 03:41:42;;;;;;;6.85;4.47;;;9.80;99.90;;;;;;5091722;28;20044;-72
2023/01/08 03:44:08;;;;;;;7.55;4.57;;;9.70;99.90;;;;;;5088307;28;20051;-72
2023/01/08 03:46:38;;;;;;;7.35;4.80;;;9.80;99.90;;;;;;5089123;28;20056;-71
2023/01/08 03:49:06;;;;;;;8.15;4.70;;;9.80;99.90;;;;;;5106875;28;20042;-72
2023/01/08 03:51:46;;;;;;;6.03;4.70;;;9.80;99.90;;;;;;5085713;28;20048;-72
2023/01/08 03:54:18;;;;;;;9.02;4.55;;;9.80;99.90;;;;;;5086781;28;20051;-72
2023/01/08 03:56:44;;;;;;;6.78;4.30;;;9.80;99.90;;;;;;5087915;28;20052;-72
2023/01/08 03:59:11;;;;;;;7.32;4.80;;;9.80;99.90;;;;;;5088290;28;20033;-72
2023/01/08 04:01:37;;;;;;;9.43;4.75;;;9.80;99.90;;;;;;5087974;28;20044;-72
2023/01/08 04:04:03;;;;;;;6.68;4.53;;;9.80;99.90;;;;;;5089165;28;20055;-72
2023/01/08 04:06:29;;;;;;;7.00;4.50;;;9.70;99.90;;;;;;5088829;28;20052;-72
2023/01/08 04:08:54;;;;;;;9.00;4.47;;;9.70;99.90;;;;;;5087834;28;20036;-72
2023/01/08 04:11:20;;;;;;;7.80;4.63;;;9.80;99.90;;;;;;5082268;28;20475;-72
2023/01/08 04:13:46;;;;;;;8.32;4.93;;;9.70;99.90;;;;;;5088307;28;20063;-71
2023/01/08 04:16:11;;;;;;;6.80;4.60;;;9.80;99.90;;;;;;5093511;28;20382;-72
2023/01/08 04:18:37;;;;;;;7.50;4.95;;;9.70;99.90;;;;;;5088584;28;20040;-71
2023/01/08 04:21:02;;;;;;;7.53;4.50;;;9.70;99.90;;;;;;5103074;28;20051;-72
2023/01/08 04:23:28;;;;;;;8.45;4.70;;;9.80;99.90;;;;;;5087785;28;20051;-72
2023/01/08 04:25:54;;;;;;;6.03;4.32;;;9.80;99.90;;;;;;5090014;28;20071;-72
2023/01/08 04:28:20;;;;;;;8.93;4.55;;;9.80;99.90;;;;;;5085725;28;20111;-72
2023/01/08 04:30:46;;;;;;;7.53;4.45;;;9.80;99.90;;;;;;5107787;28;20051;-72
2023/01/08 04:33:12;;;;;;;6.18;4.03;;;9.80;99.90;;;;;;5090143;28;20044;-72
2023/01/08 04:35:37;;;;;;;6.63;4.20;;;9.80;99.90;;;;;;5083195;28;20044;-72
2023/01/08 04:38:03;;;;;;;8.90;4.35;;;9.80;99.90;;;;;;5088903;28;20444;-72
2023/01/08 04:40:30;;;;;;;7.38;4.63;;;9.80;99.90;;;;;;5085586;28;20055;-72
2023/01/08 04:42:56;;;;;;;7.07;4.40;;;9.80;99.90;;;;;;5084699;28;20168;-71
2023/01/08 04:45:22;;;;;;;7.45;4.28;;;9.80;99.90;;;;;;5085563;28;20174;-72
2023/01/08 04:47:47;;;;;;;7.82;4.20;;;9.80;99.90;;;;;;5090091;28;20116;-72
2023/01/08 04:50:13;;;;;;;7.35;4.72;;;9.80;99.90;;;;;;5088472;28;20376;-72
2023/01/08 04:52:38;;;;;;;9.57;4.78;;;9.80;99.90;;;;;;5088962;28;20044;-72
2023/01/08 04:55:04;;;;;;;6.15;4.63;;;9.80;99.90;;;;;;5089344;28;20090;-72
2023/01/08 04:57:30;;;;;;;9.30;4.30;;;9.80;99.90;;;;;;5084652;28;20119;-71
2023/01/08 04:59:56;;;;;;;9.35;4.50;;;9.80;99.90;;;;;;5087105;28;20093;-72
2023/01/08 05:02:21;;;;;;;6.10;4.20;;;9.70;99.90;;;;;;5084874;28;20490;-72
2023/01/08 05:04:47;;;;;;;8.80;4.10;;;9.70;99.90;;;;;;5083072;28;20044;-72
2023/01/08 05:07:13;;;;;;;5.78;2.90;;;9.70;99.90;;;;;;5092127;28;20048;-72
2023/01/08 05:09:39;;;;;;;6.20;2.95;;;9.70;99.90;;;;;;5088525;28;20059;-72
2023/01/08 05:12:04;;;;;;;7.45;2.63;;;9.70;99.90;;;;;;5088338;28;20135;-72
2023/01/08 05:14:31;;;;;;;7.50;3.53;;;9.70;99.90;;;;;;5087168;28;20082;-72
2023/01/08 05:16:56;;;;;;;7.43;2.80;;;9.60;99.90;;;;;;5089901;28;20036;-71
2023/01/08 05:19:22;;;;;;;5.78;2.70;;;9.60;99.90;;;;;;5086826;28;20040;-72
2023/01/08 05:21:47;;;;;;;6.93;2.63;;;9.60;99.90;;;;;;5089500;28;20102;-72
2023/01/08 05:24:13;;;;;;;6.38;2.40;;;9.50;99.90;;;;;;5086271;28;20093;-72
2023/01/08 05:26:39;;;;;;;6.03;2.28;;;9.50;99.90;;;;;;5090234;28;20423;-72
2023/01/08 05:29:04;;;;;;;5.68;2.10;;;9.50;99.90;;;;;;5087934;28;20130;-72
2023/01/08 05:31:30;;;;;;;9.20;2.60;;;9.50;99.90;;;;;;5086268;28;20032;-72
2023/01/08 05:33:59;;;;;;;10.77;3.00;;;9.40;99.90;;;;;;5084737;28;20048;-71
2023/01/08 05:36:25;;;;;;;6.47;2.60;;;9.40;99.90;;;;;;5085594;28;20407;-72
2023/01/08 05:38:50;;;;;;;7.25;2.17;;;9.40;99.90;;;;;;5087833;28;20044;-72
2023/01/08 05:41:16;;;;;;;6.95;2.30;;;9.30;99.90;;;;;;5090134;28;20040;-72
2023/01/08 05:43:42;;;;;;;4.93;2.33;;;9.30;99.90;;;;;;5086303;28;20063;-72
2023/01/08 05:46:07;;;;;;;6.50;1.95;;;9.30;99.90;;;;;;5090187;28;20043;-72
2023/01/08 05:48:34;;;;;;;6.43;1.85;;;9.20;99.90;;;;;;5083929;28;20173;-71
2023/01/08 05:51:00;;;;;;;8.43;2.70;;;9.30;99.90;;;;;;5088287;28;20044;-72
2023/01/08 05:53:26;;;;;;;8.65;1.98;;;9.30;99.90;;;;;;5085109;28;20321;-72
2023/01/08 05:56:07;;;;;;;5.32;1.45;;;9.20;99.90;;;;;;5088654;28;20387;-72
2023/01/08 05:58:33;;;;;;;7.07;1.88;;;9.30;99.90;;;;;;5081357;28;20047;-72
2023/01/08 06:01:10;;;;;;;6.05;1.98;;;9.20;99.90;;;;;;5090276;28;20051;-72
2023/01/08 06:03:37;;;;;;;5.65;1.70;;;9.20;99.90;;;;;;5085904;28;20036;-71
2023/01/08 06:06:04;;;;;;;5.82;1.70;;;9.10;99.90;;;;;;5082414;28;20390;-72
2023/01/08 06:08:30;;;;;;;7.93;1.73;;;9.10;99.90;;;;;;5087806;28;20047;-72
2023/01/08 06:11:00;;;;;;;9.40;2.03;;;9.10;99.90;;;;;;5090129;28;20044;-72
2023/01/08 06:13:26;;;;;;;11.95;2.05;;;9.10;99.90;;;;;;5086254;28;20050;-72
2023/01/08 06:15:52;;;;;;;7.95;1.83;;;9.00;99.90;;;;;;5090262;28;20165;-72
2023/01/08 06:18:17;;;;;;;6.40;1.98;;;9.10;99.90;;;;;;5086712;28;20131;-72
2023/01/08 06:20:43;;;;;;;7.70;1.98;;;9.10;99.90;;;;;;5097022;28;20036;-72
2023/01/08 06:23:09;;;;;;;6.78;1.88;;;9.10;99.90;;;;;;5086504;28;20044;-72
2023/01/08 06:25:35;;;;;;;7.95;1.90;;;9.10;99.90;;;;;;5087098;28;20048;-72
2023/01/08 06:28:02;;;;;;;5.75;2.08;;;9.10;99.90;;;;;;5088611;28;20510;-72
2023/01/08 06:30:27;;;;;;;5.80;1.80;;;9.10;99.90;;;;;;5083399;28;20074;-72
2023/01/08 06:32:57;;;;;;;6.07;2.10;;;9.00;99.90;;;;;;5086407;28;20386;-72
2023/01/08 06:35:23;;;;;;;23.45;14.35;;;9.00;99.90;;;;;;5077617;28;20043;-72
2023/01/08 06:37:48;;;;;;;10.13;3.95;;;9.10;99.90;;;;;;5090866;28;20505;-72
2023/01/08 06:40:14;;;;;;;5.25;1.95;;;9.00;99.90;;;;;;5084254;28;20129;-72
2023/01/08 06:42:40;;;;;;;5.82;1.70;;;9.00;99.90;;;;;;5087104;28;20040;-72
2023/01/08 06:45:06;;;;;;;6.63;1.65;;;9.00;99.90;;;;;;5084053;28;20052;-72
2023/01/08 06:47:32;;;;;;;5.35;1.55;;;9.00;99.90;;;;;;5083161;28;20028;-72
2023/01/08 06:49:58;;;;;;;8.23;2.13;;;9.00;99.90;;;;;;5083991;28;20063;-72
2023/01/08 06:52:24;;;;;;;6.95;2.30;;;9.00;99.90;;;;;;5083026;28;20380;-72
2023/01/08 06:54:50;;;;;;;6.57;2.92;;;9.00;99.90;;;;;;5088651;28;20138;-71
2023/01/08 06:57:16;;;;;;;10.35;2.72;;;8.90;99.90;;;;;;5085633;28;20139;-71
2023/01/08 06:59:41;;;;;;;9.38;5.32;;;9.00;99.90;;;;;;5083595;28;20470;-72
2023/01/08 07:02:12;;;;;;;6.45;3.40;;;9.00;99.90;;;;;;5081212;28;20842;-72
2023/01/08 07:04:38;;;;;;;11.80;6.95;;;9.00;99.90;;;;;;5085784;28;20079;-72
2023/01/08 07:07:03;;;;;;;18.17;14.55;;;8.90;99.90;;;;;;5083865;28;20079;-71
2023/01/08 07:09:29;;;;;;;12.30;9.20;;;8.90;99.90;;;;;;5087272;28;20039;-71
2023/01/08 07:11:55;;;;;;;10.48;6.82;;;8.90;99.90;;;;;;5094783;28;20388;-71
2023/01/08 07:14:20;;;;;;;14.55;10.63;;;8.80;99.90;;;;;;5087231;28;20036;-71
2023/01/08 07:16:46;;;;;;;8.00;2.47;;;8.90;99.90;;;;;;5090443;28;20043;-72
2023/01/08 07:19:12;;;;;;;7.20;1.63;;;8.90;99.90;;;;;;5086310;28;20548;-72
2023/01/08 07:21:38;;;;;;;6.47;1.90;;;8.90;99.90;;;;;;5092845;28;20035;-72
2023/01/08 07:24:04;;;;;;;5.03;1.85;;;8.90;99.90;;;;;;5084864;28;20399;-71
2023/01/08 07:26:30;;;;;;;8.57;2.00;;;8.90;99.90;;;;;;5092311;28;20040;-72
2023/01/08 07:28:56;;;;;;;7.00;2.20;;;8.80;99.90;;;;;;5086832;28;20047;-72
2023/01/08 07:31:21;;;;;;;7.13;2.33;;;8.90;99.90;;;;;;5088692;28;20036;-72
2023/01/08 07:33:47;;;;;;;9.63;2.45;;;8.90;99.90;;;;;;5088247;28;20414;-72
2023/01/08 07:36:14;;;;;;;5.50;1.80;;;8.80;99.90;;;;;;5090936;28;20419;-72
2023/01/08 07:38:40;;;;;;;6.43;2.38;;;8.90;99.90;;;;;;5082164;28;20470;-71
2023/01/08 07:41:06;;;;;;;7.32;1.88;;;8.90;99.90;;;;;;5090665;28;20040;-72
2023/01/08 07:43:32;;;;;;;6.72;1.90;;;8.80;99.90;;;;;;5088721;28;20032;-72
2023/01/08 07:46:00;;;;;;;5.88;2.10;;;8.90;99.90;;;;;;5089661;28;20074;-73
2023/01/08 07:48:25;;;;;;;6.30;1.75;;;8.90;99.90;;;;;;5087176;28;20478;-70
2023/01/08 07:50:51;;;;;;;7.38;2.00;;;8.90;99.90;;;;;;5084508;28;20084;-73
2023/01/08 07:53:17;;;;;;;5.15;2.15;;;8.90;99.90;;;;;;5086641;28;20085;-71
2023/01/08 07:55:42;;;;;;;7.45;1.90;;;8.90;99.90;;;;;;5088086;28;20036;-71
2023/01/08 07:58:13;;;;;;;5.78;1.83;;;8.80;99.90;;;;;;5087611;28;20047;-73
2023/01/08 08:00:39;;;;;;;5.35;1.98;;;8.90;99.90;;;;;;5087756;28;20054;-72
2023/01/08 08:03:06;;;;;;;5.30;1.67;;;8.80;99.90;;;;;;5091751;28;20055;-73
2023/01/08 08:05:32;;;;;;;3.92;1.80;;;8.80;99.90;;;;;;5091688;28;20490;-73
2023/01/08 08:07:58;;;;;;;5.97;1.70;;;8.80;99.90;;;;;;5090419;28;20036;-73
2023/01/08 08:10:23;;;;;;;6.72;1.98;;;8.80;99.90;;;;;;5092171;28;20316;-73
2023/01/08 08:12:49;;;;;;;6.88;2.05;;;8.70;99.90;;;;;;5090533;28;20380;-73
2023/01/08 08:15:15;;;;;;;6.55;2.08;;;8.70;99.90;;;;;;5090700;28;20482;-73
2023/01/08 08:17:48;;;;;;;7.55;1.80;;;8.70;99.90;;;;;;5091680;28;20074;-72
2023/01/08 08:20:14;;;;;;;5.88;1.88;;;8.60;99.90;;;;;;5091513;28;20107;-73
2023/01/08 08:22:40;;;;;;;6.63;1.88;;;8.70;99.90;;;;;;5089907;28;20047;-72
2023/01/08 08:25:06;;;;;;;7.05;2.10;;;8.70;99.90;;;;;;5092558;28;20123;-74
2023/01/08 08:27:31;;;;;;;4.53;1.80;;;8.70;99.90;;;;;;5106270;28;20052;-73
2023/01/08 08:29:57;;;;;;;8.05;2.05;;;8.60;99.90;;;;;;5092162;28;20051;-72
2023/01/08 08:32:22;;;;;;;5.53;1.92;;;8.60;99.90;;;;;;5088764;28;20028;-72
2023/01/08 08:34:49;;;;;;;6.63;2.10;;;8.60;99.90;;;;;;5090205;28;20376;-73
2023/01/08 08:37:15;;;;;;;6.82;2.03;;;8.60;99.90;;;;;;5090165;28;20040;-72
2023/01/08 08:39:41;;;;;;;4.80;1.70;;;8.60;99.90;;;;;;5091101;28;20035;-73
2023/01/08 08:42:06;;;;;;;6.40;1.67;;;8.60;99.90;;;;;;5092193;28;20453;-69
2023/01/08 08:44:32;;;;;;;4.95;1.80;;;8.60;99.90;;;;;;5089808;28;20071;-68
2023/01/08 08:46:58;;;;;;;5.63;1.70;;;8.70;99.90;;;;;;5084022;28;20024;-68
2023/01/08 08:49:24;;;;;;;9.00;1.85;;;8.60;99.90;;;;;;5086057;28;20048;-67
2023/01/08 08:51:53;;;;;;;8.00;1.60;;;8.70;99.90;;;;;;5091068;28;20113;-67
2023/01/08 08:54:18;;;;;;;3.95;1.48;;;8.70;99.90;;;;;;5083963;28;20185;-67
2023/01/08 08:56:46;;;;;;;7.18;1.52;;;8.70;99.90;;;;;;5084261;28;20135;-67
2023/01/08 08:59:12;;;;;;;4.20;1.35;;;8.70;99.90;;;;;;5086691;28;20036;-68
2023/01/08 09:01:41;;;;;;;7.90;2.47;;;8.70;99.90;;;;;;5087935;28;20375;-67
2023/01/08 09:04:07;;;;;;;4.55;1.40;;;8.70;99.90;;;;;;5090812;28;20147;-66
2023/01/08 09:06:33;;;;;;;4.95;1.45;;;8.70;99.90;;;;;;5089125;28;20076;-67
2023/01/08 09:08:59;;;;;;;4.97;1.30;;;8.70;99.90;;;;;;5088679;28;20047;-67
2023/01/08 09:11:25;;;;;;;10.25;3.90;;;8.70;99.90;;;;;;5089293;28;20044;-67
2023/01/08 09:13:51;;;;;;;13.38;8.52;;;8.70;99.90;;;;;;5089133;28;21149;-67
2023/01/08 09:16:16;;;;;;;38.55;29.13;;;8.80;99.90;;;;;;5089591;28;20136;-67
2023/01/08 09:18:43;;;;;;;56.75;50.35;;;8.80;99.90;;;;;;5088546;28;20048;-68
2023/01/08 09:21:09;;;;;;;31.57;28.60;;;8.80;99.90;;;;;;5091511;28;20562;-67
2023/01/08 09:23:35;;;;;;;8.20;5.90;;;8.80;99.90;;;;;;5086189;28;20396;-68
2023/01/08 09:26:02;;;;;;;6.07;3.92;;;8.80;99.90;;;;;;5087628;28;20490;-69
2023/01/08 09:28:28;;;;;;;5.72;2.17;;;8.90;99.90;;;;;;5082111;28;20048;-68
2023/01/08 09:30:54;;;;;;;5.25;2.05;;;8.90;99.90;;;;;;5088756;28;20039;-68
2023/01/08 09:33:20;;;;;;;4.35;1.55;;;8.90;99.90;;;;;;5088474;28;20044;-69
2023/01/08 09:35:46;;;;;;;5.43;1.83;;;8.90;99.90;;;;;;5088949;28;20040;-68
2023/01/08 09:38:12;;;;;;;3.65;1.70;;;8.90;99.90;;;;;;5083741;28;20054;-68
2023/01/08 09:40:52;;;;;;;7.95;1.90;;;8.90;99.90;;;;;;5084219;28;20082;-69
2023/01/08 09:43:20;;;;;;;6.47;2.05;;;8.90;99.90;;;;;;5087918;28;20375;-69
2023/01/08 09:45:51;;;;;;;6.95;2.20;;;8.80;99.90;;;;;;5091234;28;20051;-68
2023/01/08 09:48:19;;;;;;;6.20;2.30;;;9.00;99.90;;;;;;5086719;28;20075;-68
2023/01/08 09:50:46;;;;;;;9.43;3.10;;;9.00;99.90;;;;;;5088802;28;20039;-69
2023/01/08 09:53:15;;;;;;;11.45;5.38;;;9.00;99.90;;;;;;5087908;28;20056;-68
2023/01/08 09:55:41;;;;;;;8.80;2.85;;;9.00;99.90;;;;;;5088381;28;20039;-69
2023/01/08 09:58:28;;;;;;;6.70;2.10;;;9.00;99.90;;;;;;5090178;28;20121;-69
2023/01/08 10:00:54;;;;;;;11.05;2.80;;;9.00;99.90;;;;;;5089587;28;20517;-68
2023/01/08 10:03:27;;;;;;;7.20;2.35;;;9.00;99.90;;;;;;5088354;28;20048;-69
2023/01/08 10:05:53;;;;;;;8.27;2.60;;;9.00;99.90;;;;;;5087605;28;20101;-68
2023/01/08 10:08:19;;;;;;;9.07;2.50;;;9.10;99.90;;;;;;5087089;28;20502;-67
2023/01/08 10:10:45;;;;;;;9.75;3.22;;;9.10;99.90;;;;;;5084696;28;20048;-67
2023/01/08 10:13:12;;;;;;;8.55;2.33;;;9.10;99.90;;;;;;5084744;28;20048;-67
2023/01/08 10:15:40;;;;;;;10.68;2.33;;;9.10;99.90;;;;;;5086984;28;20417;-67
2023/01/08 10:18:09;;;;;;;;;;;9.10;99.90;;;;;;5087337;28;20036;-69
2023/01/08 10:20:36;;;;;;;8.60;2.50;;;9.10;99.90;;;;;;5087860;28;19927;-66
2023/01/08 10:23:17;;;;;;;7.93;2.70;;;9.10;99.90;;;;;;5087312;28;20036;-67
2023/01/08 10:25:56;;;;;;;6.95;2.47;;;9.20;99.90;;;;;;5090305;28;20062;-66
2023/01/08 10:28:24;;;;;;;9.25;2.97;;;9.20;99.90;;;;;;5088331;28;20039;-67
2023/01/08 10:31:08;;;;;;;10.57;2.47;;;9.20;99.90;;;;;;5091462;28;20044;-67
2023/01/08 10:33:42;;;;;;;10.68;3.45;;;9.20;99.90;;;;;;5088643;28;20043;-67
2023/01/08 10:36:12;;;;;;;8.18;2.33;;;9.20;99.90;;;;;;5084086;28;20035;-73
2023/01/08 10:38:49;;;;;;;11.05;2.42;;;9.30;99.90;;;;;;5084461;28;20073;-71
2023/01/08 10:41:16;;;;;;;11.40;3.28;;;9.30;99.90;;;;;;5087216;28;20213;-71
2023/01/08 10:43:50;;;;;;;;;;;9.30;99.90;;;;;;5088755;28;20040;-71
2023/01/08 10:46:22;;;;;;;11.43;2.60;;;9.30;99.90;;;;;;5075701;28;20586;-71
2023/01/08 10:48:56;;;;;;;9.85;2.72;;;9.30;99.90;;;;;;5091722;28;20169;-71
2023/01/08 10:51:26;;;;;;;11.40;2.60;;;9.30;99.90;;;;;;5088731;28;20093;-73
2023/01/08 10:53:57;;;;;;;12.18;2.60;;;9.40;99.90;;;;;;5088525;28;20483;-72
2023/01/08 10:56:25;;;;;;;8.52;2.13;;;9.40;99.90;;;;;;5084913;28;20050;-72
2023/01/08 10:58:51;;;;;;;10.07;2.67;;;9.40;99.90;;;;;;5085144;28;20052;-70
2023/01/08 11:01:25;;;;;;;13.27;2.78;;;9.40;99.90;;;;;;5076323;28;20214;-73
2023/01/08 11:03:54;;;;;;;13.10;2.78;;;9.50;99.90;;;;;;5090057;28;20048;-73
2023/01/08 11:06:23;;;;;;;10.13;2.00;;;9.50;99.90;;;;;;5081773;28;20094;-72
2023/01/08 11:08:56;;;;;;;7.85;2.40;;;9.40;99.90;;;;;;5082213;28;20540;-71
2023/01/08 11:11:23;;;;;;;8.55;2.25;;;9.50;99.90;;;;;;5086931;28;20044;-72
2023/01/08 11:14:02;;;;;;;16.57;3.27;;;9.50;99.90;;;;;;5088497;28;20071;-71
2023/01/08 11:16:37;;;;;;;9.15;2.40;;;9.60;99.90;;;;;;5076402;28;20055;-70
2023/01/08 11:19:04;;;;;;;11.18;2.58;;;9.60;99.90;;;;;;5087347;28;20480;-70
2023/01/08 11:21:31;;;;;;;11.07;2.28;;;9.60;99.90;;;;;;5084566;28;20040;-71
2023/01/08 11:24:16;;;;;;;9.70;2.17;;;9.60;99.90;;;;;;5085270;28;20040;-72
2023/01/08 11:26:52;;;;;;;9.68;3.03;;;9.70;99.90;;;;;;5077154;28;22051;-68
2023/01/08 11:29:30;;;;;;;11.98;3.17;;;9.70;99.90;;;;;;5085162;28;20051;-68
2023/01/08 11:32:07;;;;;;;11.38;2.83;;;9.70;99.90;;;;;;5087017;28;20111;-72
2023/01/08 11:34:42;;;;;;;12.68;2.65;;;9.70;99.90;;;;;;5088685;28;20094;-72
2023/01/08 11:37:13;;;;;;;8.23;2.40;;;9.60;99.90;;;;;;5085073;28;20040;-71
2023/01/08 11:39:39;;;;;;;9.75;2.15;;;9.60;99.90;;;;;;5086309;28;20044;-70
2023/01/08 11:42:33;;;;;;;11.60;2.42;;;9.70;99.90;;;;;;5085709;28;20044;-71
2023/01/08 11:45:04;;;;;;;11.80;2.55;;;9.70;99.90;;;;;;5088253;28;20486;-71
2023/01/08 11:48:25;;;;;;;13.25;2.67;;;9.70;99.90;;;;;;5087666;28;20537;-71
2023/01/08 11:51:09;;;;;;;11.25;2.65;;;9.70;99.90;;;;;;5065785;28;20036;-72
2023/01/08 11:53:58;;;;;;;13.63;3.00;;;9.70;99.90;;;;;;5080381;28;20076;-71
2023/01/08 11:56:51;;;;;;;13.70;2.90;;;9.70;99.90;;;;;;5084489;28;20398;-73
2023/01/08 11:59:37;;;;;;;11.90;2.30;;;9.70;99.90;;;;;;5092929;28;20048;-72
2023/01/08 12:02:29;;;;;;;15.52;3.15;;;9.60;99.90;;;;;;5093053;28;20048;-72
2023/01/08 12:05:10;;;;;;;10.30;2.28;;;9.60;99.90;;;;;;5076702;28;20051;-73
2023/01/08 12:08:04;;;;;;;11.80;3.00;;;9.60;99.90;;;;;;5085604;28;20058;-73
2023/01/08 12:10:53;;;;;;;13.65;3.10;;;9.60;99.90;;;;;;5081635;28;20503;-72
2023/01/08 12:13:43;;;;;;;14.40;3.65;;;9.70;99.90;;;;;;5090147;28;20071;-72
2023/01/08 12:16:22;;;;;;;10.07;2.92;;;9.70;99.90;;;;;;5091426;28;20051;-72
2023/01/08 12:18:48;;;;;;;10.70;2.33;;;9.80;99.90;;;;;;5091459;28;20049;-72
2023/01/08 12:21:29;;;;;;;11.10;3.40;;;9.80;99.90;;;;;;5091269;28;20092;-72
2023/01/08 12:24:32;;;;;;;12.65;2.50;;;9.90;99.90;;;;;;5092194;28;20048;-73
2023/01/08 12:27:19;;;;;;;10.43;2.90;;;9.90;99.90;;;;;;5074462;28;20052;-71
2023/01/08 12:30:08;;;;;;;;;;;9.90;99.90;;;;;;5088813;28;20047;-69
2023/01/08 12:32:45;;;;;;;10.90;2.58;;;9.90;99.90;;;;;;5081149;28;19920;-71
2023/01/08 12:35:21;;;;;;;10.15;2.50;;;9.80;99.90;;;;;;5092661;28;20040;-72
2023/01/08 12:38:19;;;;;;;11.07;2.65;;;9.80;99.90;;;;;;5087907;28;20055;-74
2023/01/08 12:40:51;;;;;;;11.77;2.47;;;9.80;99.90;;;;;;5076208;28;20044;-73
2023/01/08 12:43:24;;;;;;;9.30;2.38;;;9.80;99.90;;;;;;5090175;28;20101;-74
2023/01/08 12:45:53;;;;;;;10.30;3.17;;;9.80;99.90;;;;;;5086052;28;20035;-72
2023/01/08 12:48:23;;;;;;;13.57;2.80;;;9.80;99.90;;;;;;5089741;28;20082;-72
2023/01/08 12:51:04;;;;;;;8.93;2.33;;;9.80;99.90;;;;;;5091284;28;20504;-71
2023/01/08 12:53:47;;;;;;;10.93;2.65;;;9.90;99.90;;;;;;5090287;28;20051;-73
2023/01/08 12:56:39;;;;;;;9.95;2.50;;;10.00;99.90;;;;;;5091889;28;20040;-76
2023/01/08 12:59:23;;;;;;;9.00;2.53;;;10.00;99.90;;;;;;5087979;28;20250;-73
2023/01/08 13:01:57;;;;;;;10.80;2.60;;;10.00;99.90;;;;;;5090369;28;20044;-74
2023/01/08 13:04:23;;;;;;;6.90;2.53;;;10.00;99.90;;;;;;5083339;28;20036;-74
2023/01/08 13:07:00;;;;;;;8.02;2.15;;;10.00;99.90;;;;;;5090938;28;20051;-73